sensor_id;sensor_type;location;lat;lon;timestamp;P1;P2;P0
72918;PMS7003;61063;55.700;26.994;2023-01-09T00:00:13;9.1;7;4.7
72918;PMS7003;61063;55.700;26.994;2023-01-09T00:05:15;8.7;6.3;4.5
72918;PMS7003;61063;55.700;26.994;2023-01-09T00:10:20;9.7;7.6;5.5
72918;PMS7003;61063;55.700;26.994;2023-01-09T00:15:00;9.7;7.6;5.5
72918;PMS7003;61063;55.700;26.994;2023-01-09T00:20:20;9.9;5.7;4.1
72918;PMS7003;61063;55.700;26.994;2023-01-09T00:25:22;8.8;6.5;4.6
72918;PMS7003;61063;55.700;26.994;2023-01-09T00:30:03;8.8;6.5;4.6
72918;PMS7003;61063;55.700;26.994;2023-01-09T00:35:02;8.7;6.7;4.7
72918;PMS7003;61063;55.700;26.994;2023-01-09T00:40:20;10.3;6.9;4.6
72918;PMS7003;61063;55.700;26.994;2023-01-09T00:44:51;10.3;6.9;4.6
72918;PMS7003;61063;55.700;26.994;2023-01-09T00:50:15;9.9;6.7;4.8
72918;PMS7003;61063;55.700;26.994;2023-01-09T00:55:12;7.7;5.3;3.9
72918;PMS7003;61063;55.700;26.994;2023-01-09T00:59:50;7.7;5.3;3.9
72918;PMS7003;61063;55.700;26.994;2023-01-09T01:05:22;9.1;6.6;5
72918;PMS7003;61063;55.700;26.994;2023-01-09T01:10:22;8.9;5.4;3.9
72918;PMS7003;61063;55.700;26.994;2023-01-09T01:15:20;8.1;6.1;4.1
72918;PMS7003;61063;55.700;26.994;2023-01-09T01:19:52;8.1;6.1;4.1
72918;PMS7003;61063;55.700;26.994;2023-01-09T01:25:13;7.7;5;3.6
72918;PMS7003;61063;55.700;26.994;2023-01-09T01:30:00;7.7;5;3.6
72918;PMS7003;61063;55.700;26.994;2023-01-09T01:35:11;9.2;7.1;5.4
72918;PMS7003;61063;55.700;26.994;2023-01-09T01:40:10;9;7;4.9
72918;PMS7003;61063;55.700;26.994;2023-01-09T01:45:10;10.3;7.6;5.1
72918;PMS7003;61063;55.700;26.994;2023-01-09T01:49:48;8.7;6.4;4.5
72918;PMS7003;61063;55.700;26.994;2023-01-09T01:55:03;10;6.5;4.4
72918;PMS7003;61063;55.700;26.994;2023-01-09T02:00:21;10.1;7.4;5.4
72918;PMS7003;61063;55.700;26.994;2023-01-09T02:05:20;10.3;7;5
72918;PMS7003;61063;55.700;26.994;2023-01-09T02:09:40;10.3;7;5
72918;PMS7003;61063;55.700;26.994;2023-01-09T02:15:02;10.2;6.9;4.6
72918;PMS7003;61063;55.700;26.994;2023-01-09T02:20:21;10.1;7.2;5.5
72918;PMS7003;61063;55.700;26.994;2023-01-09T02:25:20;10.8;7.5;5.5
72918;PMS7003;61063;55.700;26.994;2023-01-09T02:30:19;10.1;7.6;5.5
72918;PMS7003;61063;55.700;26.994;2023-01-09T02:35:15;10.1;8.2;6.1
72918;PMS7003;61063;55.700;26.994;2023-01-09T02:40:07;10.1;8.2;6.1
72918;PMS7003;61063;55.700;26.994;2023-01-09T02:44:52;10.1;6.6;4.6
72918;PMS7003;61063;55.700;26.994;2023-01-09T02:50:26;9.4;7.2;5.4
72918;PMS7003;61063;55.700;26.994;2023-01-09T02:55:27;9.7;7.6;5.3
72918;PMS7003;61063;55.700;26.994;2023-01-09T03:00:27;10.5;7.3;5.2
72918;PMS7003;61063;55.700;26.994;2023-01-09T03:05:17;8.6;7;4.7
72918;PMS7003;61063;55.700;26.994;2023-01-09T03:09:55;8.6;7;4.7
72918;PMS7003;61063;55.700;26.994;2023-01-09T03:14:45;10.8;8.9;6.1
72918;PMS7003;61063;55.700;26.994;2023-01-09T03:20:11;10.8;8.3;6.1
72918;PMS7003;61063;55.700;26.994;2023-01-09T03:25:14;9.9;7.1;4.9
72918;PMS7003;61063;55.700;26.994;2023-01-09T03:30:25;10.2;7.8;5.7
72918;PMS7003;61063;55.700;26.994;2023-01-09T03:35:05;10.2;7.8;5.7
72918;PMS7003;61063;55.700;26.994;2023-01-09T03:40:24;9.6;6.6;4.4
72918;PMS7003;61063;55.700;26.994;2023-01-09T03:45:22;10;7.6;5.7
72918;PMS7003;61063;55.700;26.994;2023-01-09T03:50:22;10.4;7.8;5.9
72918;PMS7003;61063;55.700;26.994;2023-01-09T03:54:52;10.4;7.8;5.9
72918;PMS7003;61063;55.700;26.994;2023-01-09T04:00:03;9.2;6.5;4.9
72918;PMS7003;61063;55.700;26.994;2023-01-09T04:04:42;11.6;8.2;5.7
72918;PMS7003;61063;55.700;26.994;2023-01-09T04:10:10;11;8.7;5.9
72918;PMS7003;61063;55.700;26.994;2023-01-09T04:15:12;10.3;7.5;5.7
72918;PMS7003;61063;55.700;26.994;2023-01-09T04:19:50;10.3;7.5;5.7
72918;PMS7003;61063;55.700;26.994;2023-01-09T04:24:52;10.2;7.7;5.9
72918;PMS7003;61063;55.700;26.994;2023-01-09T04:30:14;11.1;8.4;6
72918;PMS7003;61063;55.700;26.994;2023-01-09T04:35:17;10.2;7.8;5.8
72918;PMS7003;61063;55.700;26.994;2023-01-09T04:39:50;10.2;7.8;5.8
72918;PMS7003;61063;55.700;26.994;2023-01-09T04:45:03;10.6;8;5.8
72918;PMS7003;61063;55.700;26.994;2023-01-09T04:50:24;9.9;8;6.1
72918;PMS7003;61063;55.700;26.994;2023-01-09T04:54:54;9.9;8;6.1
72918;PMS7003;61063;55.700;26.994;2023-01-09T05:00:22;10.3;8.2;5.9
72918;PMS7003;61063;55.700;26.994;2023-01-09T05:05:24;11.4;8;5.5
72918;PMS7003;61063;55.700;26.994;2023-01-09T05:10:01;11.4;8;5.5
72918;PMS7003;61063;55.700;26.994;2023-01-09T05:15:03;11.8;9.3;6.6
72918;PMS7003;61063;55.700;26.994;2023-01-09T05:20:26;8.8;7.3;5.4
72918;PMS7003;61063;55.700;26.994;2023-01-09T05:25:16;11;8.1;5.9
72918;PMS7003;61063;55.700;26.994;2023-01-09T05:29:52;11;8.1;5.9
72918;PMS7003;61063;55.700;26.994;2023-01-09T05:35:27;9.2;7.2;5.8
72918;PMS7003;61063;55.700;26.994;2023-01-09T05:39:52;9.2;7.2;5.8
72918;PMS7003;61063;55.700;26.994;2023-01-09T05:45:26;10.2;8.4;6.2
72918;PMS7003;61063;55.700;26.994;2023-01-09T05:50:26;10.1;8.2;5.5
72918;PMS7003;61063;55.700;26.994;2023-01-09T05:55:24;10.3;7.4;5.5
72918;PMS7003;61063;55.700;26.994;2023-01-09T06:00:05;10.3;7.4;5.5
72918;PMS7003;61063;55.700;26.994;2023-01-09T06:05:26;10.6;7.7;5.8
72918;PMS7003;61063;55.700;26.994;2023-01-09T06:10:13;11.1;8.2;6
72918;PMS7003;61063;55.700;26.994;2023-01-09T06:15:12;12.1;8.8;6.6
72918;PMS7003;61063;55.700;26.994;2023-01-09T06:19:40;12.1;8.8;6.6
72918;PMS7003;61063;55.700;26.994;2023-01-09T06:24:42;10.5;8.6;6.7
72918;PMS7003;61063;55.700;26.994;2023-01-09T06:30:28;9.6;6.4;4.7
72918;PMS7003;61063;55.700;26.994;2023-01-09T06:34:53;9.6;6.4;4.7
72918;PMS7003;61063;55.700;26.994;2023-01-09T06:40:24;11.9;7.8;5.9
72918;PMS7003;61063;55.700;26.994;2023-01-09T06:45:24;11.1;7.8;5.5
72918;PMS7003;61063;55.700;26.994;2023-01-09T06:50:03;11.1;7.8;5.5
72918;PMS7003;61063;55.700;26.994;2023-01-09T06:55:05;12.5;9.9;7
72918;PMS7003;61063;55.700;26.994;2023-01-09T06:59:54;10;8;5.4
72918;PMS7003;61063;55.700;26.994;2023-01-09T07:05:16;12.5;9.4;6.6
72918;PMS7003;61063;55.700;26.994;2023-01-09T07:10:27;12.3;9.9;7
72918;PMS7003;61063;55.700;26.994;2023-01-09T07:15:28;11.3;8.4;5.8
72918;PMS7003;61063;55.700;26.994;2023-01-09T07:19:54;11.3;8.4;5.8
72918;PMS7003;61063;55.700;26.994;2023-01-09T07:25:28;12.1;9.2;6.6
72918;PMS7003;61063;55.700;26.994;2023-01-09T07:30:26;11.4;8.8;6.1
72918;PMS7003;61063;55.700;26.994;2023-01-09T07:34:52;11.4;8.8;6.1
72918;PMS7003;61063;55.700;26.994;2023-01-09T07:39:50;11.2;9.3;6.8
72918;PMS7003;61063;55.700;26.994;2023-01-09T07:45:24;13;10.4;7.4
72918;PMS7003;61063;55.700;26.994;2023-01-09T07:49:54;13;10.4;7.4
72918;PMS7003;61063;55.700;26.994;2023-01-09T07:55:16;12.1;9.8;7.2
72918;PMS7003;61063;55.700;26.994;2023-01-09T07:59:52;12.1;9.8;7.2
72918;PMS7003;61063;55.700;26.994;2023-01-09T08:04:42;12.6;9.7;6.6
72918;PMS7003;61063;55.700;26.994;2023-01-09T08:09:50;12.4;8.3;5.9
72918;PMS7003;61063;55.700;26.994;2023-01-09T08:14:52;13.7;11.6;8
72918;PMS7003;61063;55.700;26.994;2023-01-09T08:20:19;12.2;9.8;6.5
72918;PMS7003;61063;55.700;26.994;2023-01-09T08:25:29;12.6;9;6.1
72918;PMS7003;61063;55.700;26.994;2023-01-09T08:29:54;12.6;9;6.1
72918;PMS7003;61063;55.700;26.994;2023-01-09T08:35:03;12.7;9.7;7.2
72918;PMS7003;61063;55.700;26.994;2023-01-09T08:40:19;12.3;10.1;7.3
72918;PMS7003;61063;55.700;26.994;2023-01-09T08:45:17;10.8;8.6;6.9
72918;PMS7003;61063;55.700;26.994;2023-01-09T08:49:53;10.8;8.6;6.9
72918;PMS7003;61063;55.700;26.994;2023-01-09T08:54:53;13.4;10.1;7.5
72918;PMS7003;61063;55.700;26.994;2023-01-09T09:00:17;11.2;9.4;6.4
72918;PMS7003;61063;55.700;26.994;2023-01-09T09:04:53;11.2;9.4;6.4
72918;PMS7003;61063;55.700;26.994;2023-01-09T09:10:27;14.5;11.8;8.5
72918;PMS7003;61063;55.700;26.994;2023-01-09T09:15:15;13.4;10.4;7.7
72918;PMS7003;61063;55.700;26.994;2023-01-09T09:20:03;13.4;10.4;7.7
72918;PMS7003;61063;55.700;26.994;2023-01-09T09:25:09;14.4;11.6;8.4
72918;PMS7003;61063;55.700;26.994;2023-01-09T09:30:16;13;9.7;6.5
72918;PMS7003;61063;55.700;26.994;2023-01-09T09:35:27;13;10.4;7.8
72918;PMS7003;61063;55.700;26.994;2023-01-09T09:39:51;13;10.4;7.8
72918;PMS7003;61063;55.700;26.994;2023-01-09T09:45:17;12.9;10;6.6
72918;PMS7003;61063;55.700;26.994;2023-01-09T09:50:52;11.2;9.3;6.7
72918;PMS7003;61063;55.700;26.994;2023-01-09T09:54:44;11.2;9.3;6.7
72918;PMS7003;61063;55.700;26.994;2023-01-09T10:00:27;12.9;10;7.1
72918;PMS7003;61063;55.700;26.994;2023-01-09T10:04:55;12.9;10;7.1
72918;PMS7003;61063;55.700;26.994;2023-01-09T10:10:03;13.3;11.2;8.4
72918;PMS7003;61063;55.700;26.994;2023-01-09T10:15:15;13.4;10.1;7.5
72918;PMS7003;61063;55.700;26.994;2023-01-09T10:20:33;11.7;9.6;7.3
72918;PMS7003;61063;55.700;26.994;2023-01-09T10:25:30;15.2;10.6;7
72918;PMS7003;61063;55.700;26.994;2023-01-09T10:30:22;13.2;10.4;7.2
72918;PMS7003;61063;55.700;26.994;2023-01-09T10:35:22;14.1;11.2;7.9
72918;PMS7003;61063;55.700;26.994;2023-01-09T10:39:56;14.1;11.2;7.9
72918;PMS7003;61063;55.700;26.994;2023-01-09T10:45:30;15.1;10.6;7.3
72918;PMS7003;61063;55.700;26.994;2023-01-09T10:50:27;14.1;10.8;7.5
72918;PMS7003;61063;55.700;26.994;2023-01-09T10:55:29;14;10.3;7.3
72918;PMS7003;61063;55.700;26.994;2023-01-09T11:00:03;14;10.3;7.3
72918;PMS7003;61063;55.700;26.994;2023-01-09T11:04:51;15.1;11.7;7.8
72918;PMS7003;61063;55.700;26.994;2023-01-09T11:10:13;15.7;12.5;8.6
72918;PMS7003;61063;55.700;26.994;2023-01-09T11:15:29;15.2;11.2;7.7
72918;PMS7003;61063;55.700;26.994;2023-01-09T11:19:44;15.2;11.2;7.7
72918;PMS7003;61063;55.700;26.994;2023-01-09T11:25:17;14.9;11;7.5
72918;PMS7003;61063;55.700;26.994;2023-01-09T11:30:27;13.2;10.1;7.5
72918;PMS7003;61063;55.700;26.994;2023-01-09T11:34:53;13.2;10.1;7.5
72918;PMS7003;61063;55.700;26.994;2023-01-09T11:40:34;14.5;11.5;7.8
72918;PMS7003;61063;55.700;26.994;2023-01-09T11:45:15;13.3;10.2;7
72918;PMS7003;61063;55.700;26.994;2023-01-09T11:49:57;13.3;10.2;7
72918;PMS7003;61063;55.700;26.994;2023-01-09T11:54:56;14.3;10.6;7.7
72918;PMS7003;61063;55.700;26.994;2023-01-09T12:00:03;12.3;9.7;7.5
72918;PMS7003;61063;55.700;26.994;2023-01-09T12:05:30;14;10.6;7
72918;PMS7003;61063;55.700;26.994;2023-01-09T12:09:53;14;10.6;7
72918;PMS7003;61063;55.700;26.994;2023-01-09T12:15:18;14.5;10.8;7.9
72918;PMS7003;61063;55.700;26.994;2023-01-09T12:20:20;16.7;12.1;8.9
72918;PMS7003;61063;55.700;26.994;2023-01-09T12:25:04;16.7;12.1;8.9
72918;PMS7003;61063;55.700;26.994;2023-01-09T12:30:32;14.7;11.9;8.3
72918;PMS7003;61063;55.700;26.994;2023-01-09T12:34:55;14.7;11.9;8.3
72918;PMS7003;61063;55.700;26.994;2023-01-09T12:39:57;13.9;10.2;7.4
72918;PMS7003;61063;55.700;26.994;2023-01-09T12:44:51;13;9;6.5
72918;PMS7003;61063;55.700;26.994;2023-01-09T12:50:27;13.6;10.8;7.6
72918;PMS7003;61063;55.700;26.994;2023-01-09T12:55:27;14.5;10.6;7.5
72918;PMS7003;61063;55.700;26.994;2023-01-09T12:59:54;14.5;10.6;7.5
72918;PMS7003;61063;55.700;26.994;2023-01-09T13:05:18;15.3;12.3;8.4
72918;PMS7003;61063;55.700;26.994;2023-01-09T13:10:15;12.7;9.9;7.1
72918;PMS7003;61063;55.700;26.994;2023-01-09T13:14:52;12.7;9.9;7.1
72918;PMS7003;61063;55.700;26.994;2023-01-09T13:20:29;13.1;9.8;6.6
72918;PMS7003;61063;55.700;26.994;2023-01-09T13:24:58;13.1;9.8;6.6
72918;PMS7003;61063;55.700;26.994;2023-01-09T13:30:05;13.1;10.3;7.8
72918;PMS7003;61063;55.700;26.994;2023-01-09T13:34:51;15.6;10.7;7.8
72918;PMS7003;61063;55.700;26.994;2023-01-09T13:40:26;14.6;10.6;7.3
72918;PMS7003;61063;55.700;26.994;2023-01-09T13:45:27;13.4;9.6;6.8
72918;PMS7003;61063;55.700;26.994;2023-01-09T13:50:20;13.4;9.6;6.8
72918;PMS7003;61063;55.700;26.994;2023-01-09T14:01:38;11.1;8.2;5.7
72918;PMS7003;61063;55.700;26.994;2023-01-09T14:10:28;10.5;8.7;6.4
72918;PMS7003;61063;55.700;26.994;2023-01-09T14:14:55;10.5;8.7;6.4
72918;PMS7003;61063;55.700;26.994;2023-01-09T14:20:03;13.4;10;7.1
72918;PMS7003;61063;55.700;26.994;2023-01-09T14:25:28;12.7;9.2;6.7
72918;PMS7003;61063;55.700;26.994;2023-01-09T14:30:33;12.2;8.8;6.8
72918;PMS7003;61063;55.700;26.994;2023-01-09T14:35:28;12.6;9.2;6.6
72918;PMS7003;61063;55.700;26.994;2023-01-09T14:40:25;11.4;8.4;6.1
72918;PMS7003;61063;55.700;26.994;2023-01-09T14:45:16;12.2;9;6.3
72918;PMS7003;61063;55.700;26.994;2023-01-09T14:50:16;11.1;8.5;5.9
72918;PMS7003;61063;55.700;26.994;2023-01-09T14:55:25;10.8;8.8;6.3
72918;PMS7003;61063;55.700;26.994;2023-01-09T15:00:29;11.1;8.8;6.4
72918;PMS7003;61063;55.700;26.994;2023-01-09T15:04:55;11.1;8.8;6.4
72918;PMS7003;61063;55.700;26.994;2023-01-09T15:10:30;11.7;8.4;6.1
72918;PMS7003;61063;55.700;26.994;2023-01-09T15:15:03;11.7;8.4;6.1
72918;PMS7003;61063;55.700;26.994;2023-01-09T15:20:27;11;8.2;5.8
72918;PMS7003;61063;55.700;26.994;2023-01-09T15:25:29;11.5;8.8;6.4
72918;PMS7003;61063;55.700;26.994;2023-01-09T15:29:55;11.5;8.8;6.4
72918;PMS7003;61063;55.700;26.994;2023-01-09T15:35:17;12.5;8.6;6.5
72918;PMS7003;61063;55.700;26.994;2023-01-09T15:40:16;11.4;9.1;6.6
72918;PMS7003;61063;55.700;26.994;2023-01-09T15:45:30;10;7.6;5.8
72918;PMS7003;61063;55.700;26.994;2023-01-09T15:50:29;12.4;8.7;6.3
72918;PMS7003;61063;55.700;26.994;2023-01-09T15:54:53;12.4;8.7;6.3
72918;PMS7003;61063;55.700;26.994;2023-01-09T16:00:52;11.9;8.2;6.1
72918;PMS7003;61063;55.700;26.994;2023-01-09T16:05:29;10.1;7.2;5.4
72918;PMS7003;61063;55.700;26.994;2023-01-09T16:10:28;10.7;7.9;5.7
72918;PMS7003;61063;55.700;26.994;2023-01-09T16:15:25;11.1;7.8;6.3
72918;PMS7003;61063;55.700;26.994;2023-01-09T16:20:27;11;8.4;5.8
72918;PMS7003;61063;55.700;26.994;2023-01-09T16:25:22;11.4;8.6;6.1
72918;PMS7003;61063;55.700;26.994;2023-01-09T16:30:21;11.1;8.6;6.1
72918;PMS7003;61063;55.700;26.994;2023-01-09T16:35:27;9.8;7.8;5.9
72918;PMS7003;61063;55.700;26.994;2023-01-09T16:40:27;8.6;7.1;4.8
72918;PMS7003;61063;55.700;26.994;2023-01-09T16:45:03;8.6;7.1;4.8
72918;PMS7003;61063;55.700;26.994;2023-01-09T16:50:27;11.2;7.7;5.6
72918;PMS7003;61063;55.700;26.994;2023-01-09T16:54:53;11.2;7.7;5.6
72918;PMS7003;61063;55.700;26.994;2023-01-09T17:00:25;10.3;8.2;6.2
72918;PMS7003;61063;55.700;26.994;2023-01-09T17:05:27;11.5;8.1;6.3
72918;PMS7003;61063;55.700;26.994;2023-01-09T17:09:41;11.5;8.1;6.3
72918;PMS7003;61063;55.700;26.994;2023-01-09T17:15:19;10.2;8;5.9
72918;PMS7003;61063;55.700;26.994;2023-01-09T17:20:17;9.6;7.2;5.4
72918;PMS7003;61063;55.700;26.994;2023-01-09T17:25:29;9.2;7;5.5
72918;PMS7003;61063;55.700;26.994;2023-01-09T17:29:57;9.2;7;5.5
72918;PMS7003;61063;55.700;26.994;2023-01-09T17:35:08;9.5;7.3;5.8
72918;PMS7003;61063;55.700;26.994;2023-01-09T17:40:25;11.5;7;5.6
72918;PMS7003;61063;55.700;26.994;2023-01-09T17:44:53;11.5;7;5.6
72918;PMS7003;61063;55.700;26.994;2023-01-09T17:50:05;10.1;7.3;5.4
72918;PMS7003;61063;55.700;26.994;2023-01-09T17:55:03;10;7.8;5.7
72918;PMS7003;61063;55.700;26.994;2023-01-09T18:00:27;9.5;7.2;5.3
72918;PMS7003;61063;55.700;26.994;2023-01-09T18:05:25;9;6.4;5.1
72918;PMS7003;61063;55.700;26.994;2023-01-09T18:10:15;9.7;6.8;5.3
72918;PMS7003;61063;55.700;26.994;2023-01-09T18:15:07;9.7;6.8;5.3
72918;PMS7003;61063;55.700;26.994;2023-01-09T18:20:29;10;6.8;5.3
72918;PMS7003;61063;55.700;26.994;2023-01-09T18:25:07;10;6.8;5.3
72918;PMS7003;61063;55.700;26.994;2023-01-09T18:30:27;9.1;7.5;5.4
72918;PMS7003;61063;55.700;26.994;2023-01-09T18:35:31;9.2;6.3;4.8
72918;PMS7003;61063;55.700;26.994;2023-01-09T18:40:05;9.2;6.3;4.8
72918;PMS7003;61063;55.700;26.994;2023-01-09T18:44:51;8.9;6.6;4.9
72918;PMS7003;61063;55.700;26.994;2023-01-09T18:50:27;9.6;6.6;5
72918;PMS7003;61063;55.700;26.994;2023-01-09T18:55:27;8.9;6.2;5
72918;PMS7003;61063;55.700;26.994;2023-01-09T19:00:19;8.2;6.3;4.8
72918;PMS7003;61063;55.700;26.994;2023-01-09T19:05:19;9.6;7.3;4.9
72918;PMS7003;61063;55.700;26.994;2023-01-09T19:10:05;9.6;7.3;4.9
72918;PMS7003;61063;55.700;26.994;2023-01-09T19:15:05;10.3;6.9;5.2
72918;PMS7003;61063;55.700;26.994;2023-01-09T19:20:27;8.4;6.3;5
72918;PMS7003;61063;55.700;26.994;2023-01-09T19:24:55;8.4;6.3;5
72918;PMS7003;61063;55.700;26.994;2023-01-09T19:30:03;9.8;7.5;5.5
72918;PMS7003;61063;55.700;26.994;2023-01-09T19:35:23;8.6;6.7;4.9
72918;PMS7003;61063;55.700;26.994;2023-01-09T19:40:27;8.4;5.9;4.4
72918;PMS7003;61063;55.700;26.994;2023-01-09T19:45:27;7.4;6.3;4.6
72918;PMS7003;61063;55.700;26.994;2023-01-09T19:50:17;8.5;6.7;4.9
72918;PMS7003;61063;55.700;26.994;2023-01-09T19:55:27;10.5;7;5.2
72918;PMS7003;61063;55.700;26.994;2023-01-09T19:59:43;10.5;7;5.2
72918;PMS7003;61063;55.700;26.994;2023-01-09T20:04:43;8.3;6.4;4.9
72918;PMS7003;61063;55.700;26.994;2023-01-09T20:10:29;9.1;6.9;5.6
72918;PMS7003;61063;55.700;26.994;2023-01-09T20:15:29;7.6;5;3.8
72918;PMS7003;61063;55.700;26.994;2023-01-09T20:20:07;7.6;5;3.8
72918;PMS7003;61063;55.700;26.994;2023-01-09T20:25:29;8.8;6.8;5.2
72918;PMS7003;61063;55.700;26.994;2023-01-09T20:29:57;8.8;6.8;5.2
72918;PMS7003;61063;55.700;26.994;2023-01-09T20:35:27;8.9;6.7;5.4
72918;PMS7003;61063;55.700;26.994;2023-01-09T20:40:25;8.4;6.5;4.8
72918;PMS7003;61063;55.700;26.994;2023-01-09T20:45:17;7.5;5.9;4.9
72918;PMS7003;61063;55.700;26.994;2023-01-09T20:50:29;7.9;5.7;4.7
72918;PMS7003;61063;55.700;26.994;2023-01-09T20:55:08;7.9;5.7;4.7
72918;PMS7003;61063;55.700;26.994;2023-01-09T21:00:29;10.1;6.9;5.4
72918;PMS7003;61063;55.700;26.994;2023-01-09T21:04:53;10.1;6.9;5.4
72918;PMS7003;61063;55.700;26.994;2023-01-09T21:10:03;9;7.5;5.3
72918;PMS7003;61063;55.700;26.994;2023-01-09T21:15:07;10;7.2;5.6
72918;PMS7003;61063;55.700;26.994;2023-01-09T21:19:43;9.3;7.2;5.5
72918;PMS7003;61063;55.700;26.994;2023-01-09T21:25:27;8.2;5.6;4.2
72918;PMS7003;61063;55.700;26.994;2023-01-09T21:30:07;8.2;5.6;4.2
72918;PMS7003;61063;55.700;26.994;2023-01-09T21:35:17;8.1;6.4;4.8
72918;PMS7003;61063;55.700;26.994;2023-01-09T21:40:31;7.5;5.8;4.4
72918;PMS7003;61063;55.700;26.994;2023-01-09T21:44:43;7.5;5.8;4.4
72918;PMS7003;61063;55.700;26.994;2023-01-09T21:50:21;7.5;5.2;3.8
72918;PMS7003;61063;55.700;26.994;2023-01-09T21:55:31;8;5.6;4.4
72918;PMS7003;61063;55.700;26.994;2023-01-09T21:59:55;8;5.6;4.4
72918;PMS7003;61063;55.700;26.994;2023-01-09T22:05:09;7.3;5.2;4
72918;PMS7003;61063;55.700;26.994;2023-01-09T22:09:51;7.4;6.3;4.8
72918;PMS7003;61063;55.700;26.994;2023-01-09T22:15:27;8.6;5.8;4.3
72918;PMS7003;61063;55.700;26.994;2023-01-09T22:20:15;7.7;5.7;4.5
72918;PMS7003;61063;55.700;26.994;2023-01-09T22:25:15;7.7;5.7;4.2
72918;PMS7003;61063;55.700;26.994;2023-01-09T22:29:53;7.7;5.7;4.2
72918;PMS7003;61063;55.700;26.994;2023-01-09T22:35:03;6.8;4.9;3.4
72918;PMS7003;61063;55.700;26.994;2023-01-09T22:40:27;7.5;5.2;3.9
72918;PMS7003;61063;55.700;26.994;2023-01-09T22:44:51;7.5;5.2;3.9
72918;PMS7003;61063;55.700;26.994;2023-01-09T22:49:51;5;3.9;3.1
72918;PMS7003;61063;55.700;26.994;2023-01-09T22:54:41;7.3;4.9;3.8
72918;PMS7003;61063;55.700;26.994;2023-01-09T23:00:27;7;5.8;3.9
72918;PMS7003;61063;55.700;26.994;2023-01-09T23:05:13;6.2;5;3.6
72918;PMS7003;61063;55.700;26.994;2023-01-09T23:09:51;6.2;5;3.6
72918;PMS7003;61063;55.700;26.994;2023-01-09T23:15:03;6.8;5.5;4.2
72918;PMS7003;61063;55.700;26.994;2023-01-09T23:20:25;6.3;4.8;3.3
72918;PMS7003;61063;55.700;26.994;2023-01-09T23:25:25;6.1;4.8;3.6
72918;PMS7003;61063;55.700;26.994;2023-01-09T23:30:25;6.3;4.6;3.4
72918;PMS7003;61063;55.700;26.994;2023-01-09T23:34:49;6.3;4.6;3.4
72918;PMS7003;61063;55.700;26.994;2023-01-09T23:39:41;5.9;4.4;3.3
72918;PMS7003;61063;55.700;26.994;2023-01-09T23:44:59;6.6;5.3;3.7
72918;PMS7003;61063;55.700;26.994;2023-01-09T23:50:13;6.1;4.9;3.8
72918;PMS7003;61063;55.700;26.994;2023-01-09T23:55:25;7.3;5.6;4.1
